createdAt,value
2022-10-19T00:00:50.329Z,15.25
2022-10-19T00:03:37.036Z,13.25
2022-10-19T00:06:25.989Z,11.82
2022-10-19T00:09:17.551Z,15.23
2022-10-19T00:12:03.925Z,12.57
2022-10-19T00:14:50.127Z,19.02
2022-10-19T00:17:36.344Z,16.45
2022-10-19T00:20:22.258Z,12.38
2022-10-19T00:23:08.070Z,10.73
2022-10-19T00:25:57.848Z,12.10
2022-10-19T00:28:44.574Z,11.75
2022-10-19T00:31:30.480Z,11.38
2022-10-19T00:34:16.792Z,13.35
2022-10-19T00:37:02.990Z,17.67
2022-10-19T00:39:48.954Z,14.05
2022-10-19T00:42:35.242Z,12.52
2022-10-19T00:45:21.636Z,16.52
2022-10-19T00:48:08.228Z,18.08
2022-10-19T00:50:56.328Z,13.80
2022-10-19T00:53:42.611Z,13.45
2022-10-19T00:56:28.694Z,12.55
2022-10-19T00:59:16.358Z,14.20
2022-10-19T01:02:04.637Z,14.55
2022-10-19T01:04:52.009Z,15.93
2022-10-19T01:07:38.016Z,13.65
2022-10-19T01:10:35.501Z,16.45
2022-10-19T01:13:46.436Z,14.13
2022-10-19T01:16:42.838Z,14.07
2022-10-19T01:19:40.141Z,19.58
2022-10-19T01:22:35.268Z,16.48
2022-10-19T01:25:52.141Z,15.70
2022-10-19T01:28:50.527Z,18.02
2022-10-19T01:32:00.569Z,22.27
2022-10-19T01:35:10.886Z,24.55
2022-10-19T01:38:08.444Z,23.90
2022-10-19T01:41:23.792Z,18.17
2022-10-19T01:44:29.669Z,22.77
2022-10-19T01:47:20.578Z,18.83
2022-10-19T01:50:20.176Z,31.48
2022-10-19T01:53:08.283Z,358.77
2022-10-19T01:55:56.000Z,265.45
2022-10-19T01:58:44.104Z,130.20
2022-10-19T02:01:31.358Z,110.82
2022-10-19T02:04:19.395Z,95.57
2022-10-19T02:07:06.209Z,65.05
2022-10-19T02:09:52.309Z,60.65
2022-10-19T02:12:38.501Z,46.45
2022-10-19T02:15:27.002Z,41.88
2022-10-19T02:18:15.006Z,29.52
2022-10-19T02:21:03.902Z,23.67
2022-10-19T02:23:51.898Z,25.98
2022-10-19T02:26:40.733Z,24.05
2022-10-19T02:29:27.367Z,23.90
2022-10-19T02:32:14.685Z,27.48
2022-10-19T02:35:01.168Z,27.23
2022-10-19T02:37:47.525Z,28.35
2022-10-19T02:40:37.482Z,18.92
2022-10-19T02:43:24.712Z,24.30
2022-10-19T02:46:44.327Z,19.10
2022-10-19T02:49:30.903Z,23.58
2022-10-19T02:52:16.619Z,24.92
2022-10-19T02:55:02.676Z,20.40
2022-10-19T02:57:48.392Z,27.45
2022-10-19T03:00:34.448Z,89.75
2022-10-19T03:03:20.225Z,73.97
2022-10-19T03:06:06.114Z,34.05
2022-10-19T03:08:52.149Z,23.40
2022-10-19T03:11:37.970Z,31.63
2022-10-19T03:14:24.083Z,21.20
2022-10-19T03:17:10.667Z,36.00
2022-10-19T03:19:56.590Z,66.00
2022-10-19T03:22:42.884Z,96.72
2022-10-19T03:25:28.850Z,59.20
2022-10-19T03:28:15.130Z,36.85
2022-10-19T03:31:01.163Z,25.73
2022-10-19T03:33:47.087Z,25.77
2022-10-19T03:36:35.234Z,24.13
2022-10-19T03:39:21.414Z,27.45
2022-10-19T03:42:07.137Z,24.27
2022-10-19T03:44:53.028Z,33.25
2022-10-19T03:47:38.882Z,36.00
2022-10-19T03:50:24.769Z,29.80
2022-10-19T03:53:10.754Z,27.08
2022-10-19T03:56:02.069Z,21.40
2022-10-19T03:58:49.181Z,23.13
2022-10-19T04:01:40.807Z,28.38
2022-10-19T04:04:26.732Z,19.25
2022-10-19T04:07:12.691Z,22.38
2022-10-19T04:09:58.479Z,16.88
2022-10-19T04:12:44.634Z,24.58
2022-10-19T04:15:30.916Z,14.57
2022-10-19T04:18:16.766Z,19.10
2022-10-19T04:21:05.127Z,19.23
2022-10-19T04:23:52.849Z,22.73
2022-10-19T04:26:43.581Z,26.08
2022-10-19T04:29:30.196Z,32.75
2022-10-19T04:32:17.035Z,31.67
2022-10-19T04:35:03.203Z,34.83
2022-10-19T04:37:49.217Z,45.50
2022-10-19T04:40:36.884Z,40.25
2022-10-19T04:43:23.109Z,47.53
2022-10-19T04:46:11.435Z,47.83
2022-10-19T04:48:58.060Z,35.67
2022-10-19T04:51:44.237Z,38.85
2022-10-19T04:54:30.141Z,30.83
2022-10-19T04:57:16.079Z,33.13
2022-10-19T05:00:02.694Z,32.15
2022-10-19T05:02:48.749Z,29.92
2022-10-19T05:05:35.159Z,32.08
2022-10-19T05:08:21.218Z,36.85
2022-10-19T05:11:09.869Z,28.73
2022-10-19T05:13:56.953Z,28.25
2022-10-19T05:16:43.002Z,30.55
2022-10-19T05:19:28.900Z,29.27
2022-10-19T05:22:14.889Z,29.13
2022-10-19T05:25:00.780Z,32.28
2022-10-19T05:27:51.117Z,35.85
2022-10-19T05:30:38.903Z,24.77
2022-10-19T05:33:25.056Z,35.03
2022-10-19T05:36:20.086Z,34.70
2022-10-19T05:39:13.397Z,45.95
2022-10-19T05:41:59.545Z,40.65
2022-10-19T05:44:45.386Z,44.40
2022-10-19T05:47:31.959Z,36.83
2022-10-19T05:50:18.343Z,43.10
2022-10-19T05:53:04.537Z,40.20
2022-10-19T05:55:50.435Z,35.83
2022-10-19T05:58:36.445Z,29.85
2022-10-19T06:01:22.633Z,30.88
2022-10-19T06:04:08.900Z,26.42
2022-10-19T06:06:54.744Z,25.85
2022-10-19T06:09:40.714Z,29.77
2022-10-19T06:12:26.921Z,22.40
2022-10-19T06:15:12.837Z,36.53
2022-10-19T06:17:58.899Z,30.00
2022-10-19T06:20:44.880Z,27.48
2022-10-19T06:23:31.747Z,20.75
2022-10-19T06:26:17.697Z,30.58
2022-10-19T06:29:04.593Z,30.95
2022-10-19T06:31:50.509Z,31.38
2022-10-19T06:34:36.778Z,27.13
2022-10-19T06:37:22.780Z,30.80
2022-10-19T06:40:09.814Z,28.85
2022-10-19T06:42:56.393Z,33.22
2022-10-19T06:45:42.518Z,40.80
2022-10-19T06:48:28.447Z,39.08
2022-10-19T06:51:14.224Z,37.47
2022-10-19T06:54:00.273Z,29.30
2022-10-19T06:56:46.408Z,32.13
2022-10-19T06:59:32.288Z,33.85
2022-10-19T07:02:18.235Z,37.05
2022-10-19T07:05:06.970Z,32.38
2022-10-19T07:07:53.050Z,29.27
2022-10-19T07:10:38.840Z,35.78
2022-10-19T07:13:25.571Z,45.25
2022-10-19T07:16:17.539Z,31.00
2022-10-19T07:19:06.951Z,28.05
2022-10-19T07:21:52.878Z,29.75
2022-10-19T07:24:39.025Z,34.85
2022-10-19T07:27:25.103Z,49.53
2022-10-19T07:30:11.159Z,53.47
2022-10-19T07:32:57.310Z,42.85
2022-10-19T07:35:43.237Z,48.30
2022-10-19T07:38:30.853Z,47.97
2022-10-19T07:41:19.304Z,41.75
2022-10-19T07:44:05.391Z,38.15
2022-10-19T07:46:51.727Z,50.40
2022-10-19T07:49:38.389Z,37.67
2022-10-19T07:52:24.526Z,40.03
2022-10-19T07:55:10.464Z,43.85
2022-10-19T07:57:56.303Z,41.85
2022-10-19T08:00:42.070Z,34.90
2022-10-19T08:06:34.129Z,33.05
2022-10-19T08:09:47.370Z,37.97
2022-10-19T08:12:26.009Z,36.17
2022-10-19T08:15:11.974Z,30.75
2022-10-19T08:17:58.686Z,26.70
2022-10-19T08:20:45.062Z,27.95
2022-10-19T08:23:31.237Z,28.17
2022-10-19T08:26:17.324Z,26.90
2022-10-19T08:29:05.056Z,27.33
2022-10-19T08:31:50.942Z,25.98
2022-10-19T08:34:37.115Z,23.48
2022-10-19T08:37:40.351Z,30.13
2022-10-19T08:40:30.833Z,31.40
2022-10-19T08:43:32.935Z,22.30
2022-10-19T08:46:24.878Z,28.45
2022-10-19T08:49:13.205Z,26.38
2022-10-19T08:52:02.210Z,24.40
2022-10-19T08:54:55.354Z,27.80
2022-10-19T08:57:59.247Z,31.05
2022-10-19T09:00:55.296Z,26.05
2022-10-19T09:04:17.739Z,21.30
2022-10-19T09:07:20.937Z,26.83
2022-10-19T09:10:16.908Z,24.77
2022-10-19T09:13:09.149Z,31.33
2022-10-19T09:15:55.945Z,27.40
2022-10-19T09:18:43.218Z,23.45
2022-10-19T09:21:43.282Z,25.95
2022-10-19T09:24:43.064Z,22.92
2022-10-19T09:27:35.775Z,27.00
2022-10-19T09:30:23.557Z,30.23
2022-10-19T09:33:16.306Z,22.67
2022-10-19T09:38:49.203Z,22.33
2022-10-19T09:41:36.034Z,24.77
2022-10-19T09:44:23.443Z,29.25
2022-10-19T09:47:38.755Z,26.30
2022-10-19T09:50:27.296Z,23.90
2022-10-19T09:53:19.579Z,22.75
2022-10-19T09:56:07.837Z,25.27
2022-10-19T09:58:57.480Z,27.13
2022-10-19T10:01:43.821Z,30.60
2022-10-19T10:04:30.563Z,31.60
2022-10-19T10:07:18.197Z,21.08
2022-10-19T10:10:25.506Z,22.00
2022-10-19T10:13:20.512Z,29.38
2022-10-19T10:16:08.926Z,32.58
2022-10-19T10:19:06.934Z,18.17
2022-10-19T10:21:57.833Z,28.08
2022-10-19T10:24:52.956Z,20.08
2022-10-19T10:27:39.957Z,23.45
2022-10-19T10:30:27.256Z,29.25
2022-10-19T10:33:33.367Z,28.85
2022-10-19T10:36:28.577Z,24.13
2022-10-19T10:39:16.244Z,24.70
2022-10-19T10:42:08.222Z,18.77
2022-10-19T10:44:56.464Z,23.77
2022-10-19T10:47:48.354Z,18.80
2022-10-19T10:50:35.813Z,18.25
2022-10-19T10:53:37.195Z,8.57
2022-10-19T10:56:29.801Z,10.27
2022-10-19T10:59:28.687Z,11.13
2022-10-19T11:05:54.508Z,12.68
2022-10-19T11:08:46.586Z,11.80
2022-10-19T11:11:45.397Z,12.00
2022-10-19T11:15:18.385Z,9.02
2022-10-19T11:18:36.413Z,13.50
2022-10-19T11:21:41.552Z,8.60
2022-10-19T11:24:36.054Z,7.85
2022-10-19T11:27:47.863Z,12.45
2022-10-19T11:30:42.483Z,11.77
2022-10-19T11:33:50.858Z,6.82
2022-10-19T11:36:44.030Z,10.73
2022-10-19T11:39:35.890Z,13.68
2022-10-19T11:42:55.778Z,17.50
2022-10-19T11:45:44.693Z,9.05
2022-10-19T11:48:55.642Z,9.35
2022-10-19T11:51:59.574Z,10.30
2022-10-19T11:54:54.392Z,12.30
2022-10-19T11:57:54.017Z,10.00
2022-10-19T12:00:51.823Z,9.70
2022-10-19T12:03:53.007Z,13.57
2022-10-19T12:07:19.493Z,12.25
2022-10-19T12:10:33.629Z,9.50
2022-10-19T12:13:26.245Z,12.15
2022-10-19T12:16:13.552Z,9.90
2022-10-19T12:19:01.022Z,10.35
2022-10-19T12:21:47.882Z,9.13
2022-10-19T12:24:34.633Z,14.40
2022-10-19T12:27:36.726Z,9.98
2022-10-19T12:30:24.878Z,12.13
2022-10-19T12:33:24.001Z,11.25
2022-10-19T12:36:45.617Z,9.35
2022-10-19T12:39:43.077Z,9.70
2022-10-19T12:42:29.014Z,14.32
2022-10-19T12:45:34.045Z,11.32
2022-10-19T12:48:22.082Z,9.88
2022-10-19T12:51:12.203Z,8.45
2022-10-19T12:54:08.429Z,11.63
2022-10-19T12:56:56.194Z,9.25
2022-10-19T12:59:42.535Z,13.10
2022-10-19T13:05:23.536Z,9.88
2022-10-19T13:08:12.269Z,10.00
2022-10-19T13:11:15.500Z,8.20
2022-10-19T13:14:27.326Z,10.52
2022-10-19T13:17:36.581Z,8.82
2022-10-19T13:20:24.909Z,14.55
2022-10-19T13:23:11.082Z,9.43
2022-10-19T13:26:34.265Z,9.27
2022-10-19T13:29:28.934Z,10.13
2022-10-19T13:32:41.168Z,9.38
2022-10-19T13:35:34.647Z,8.00
2022-10-19T13:38:24.153Z,12.52
2022-10-19T13:41:27.991Z,6.97
2022-10-19T13:44:18.313Z,9.13
2022-10-19T13:50:44.200Z,9.95
2022-10-19T13:54:02.063Z,6.95
2022-10-19T13:56:59.032Z,11.13
2022-10-19T14:00:01.734Z,8.35
2022-10-19T14:03:20.737Z,10.15
2022-10-19T14:06:21.342Z,8.00
2022-10-19T14:09:29.498Z,9.75
2022-10-19T14:12:21.689Z,10.57
2022-10-19T14:15:29.768Z,14.50
2022-10-19T14:18:31.276Z,8.02
2022-10-19T14:21:32.266Z,12.95
2022-10-19T14:24:28.210Z,5.85
2022-10-19T14:27:19.899Z,6.78
2022-10-19T14:30:06.934Z,13.40
2022-10-19T14:32:56.812Z,10.73
2022-10-19T14:38:35.302Z,6.57
2022-10-19T14:44:43.850Z,8.43
2022-10-19T14:47:30.599Z,7.30
2022-10-19T14:50:16.420Z,6.85
2022-10-19T14:53:20.556Z,11.73
2022-10-19T14:56:11.009Z,7.45
2022-10-19T14:59:00.972Z,8.65
2022-10-19T15:01:55.812Z,10.18
2022-10-19T15:04:42.659Z,7.97
2022-10-19T15:07:39.938Z,8.30
2022-10-19T15:10:43.363Z,10.05
2022-10-19T15:13:33.340Z,10.57
2022-10-19T15:16:43.983Z,8.68
2022-10-19T15:19:48.200Z,10.60
2022-10-19T15:22:34.358Z,8.80
2022-10-19T15:25:37.193Z,8.98
2022-10-19T15:28:40.699Z,9.98
2022-10-19T15:31:29.806Z,9.35
2022-10-19T15:34:24.284Z,13.80
2022-10-19T15:37:20.634Z,13.00
2022-10-19T15:40:26.095Z,8.98
2022-10-19T15:43:30.762Z,9.57
2022-10-19T15:46:28.595Z,13.02
2022-10-19T15:49:17.544Z,9.38
2022-10-19T15:52:17.907Z,29.20
2022-10-19T15:55:04.201Z,19.67
2022-10-19T15:57:58.566Z,24.25
2022-10-19T16:00:44.888Z,19.73
2022-10-19T16:03:30.785Z,19.77
2022-10-19T16:06:17.702Z,23.23
2022-10-19T16:09:04.572Z,17.42
2022-10-19T16:11:56.429Z,21.95
2022-10-19T16:14:42.653Z,22.42
2022-10-19T16:17:28.797Z,21.63
2022-10-19T16:20:15.465Z,23.70
2022-10-19T16:23:01.738Z,22.15
2022-10-19T16:25:47.718Z,24.00
2022-10-19T16:28:34.133Z,20.55
2022-10-19T16:31:20.554Z,20.25
2022-10-19T16:34:06.574Z,20.92
2022-10-19T16:36:52.654Z,23.60
2022-10-19T16:39:38.757Z,23.65
2022-10-19T16:42:29.649Z,15.00
2022-10-19T16:45:17.348Z,22.55
2022-10-19T16:48:03.409Z,20.55
2022-10-19T16:51:07.797Z,18.40
2022-10-19T16:53:57.231Z,15.95
2022-10-19T16:56:47.807Z,16.27
2022-10-19T16:59:33.812Z,17.77
2022-10-19T17:02:20.639Z,18.48
2022-10-19T17:05:06.728Z,18.40
2022-10-19T17:07:53.009Z,20.15
2022-10-19T17:10:38.793Z,17.70
2022-10-19T17:13:24.696Z,19.20
2022-10-19T17:16:11.653Z,19.52
2022-10-19T17:18:59.510Z,25.35
2022-10-19T17:21:45.648Z,17.70
2022-10-19T17:24:31.935Z,17.77
2022-10-19T17:27:18.224Z,20.38
2022-10-19T17:30:04.707Z,21.20
2022-10-19T17:32:50.971Z,21.17
2022-10-19T17:35:36.894Z,21.65
2022-10-19T17:38:22.940Z,17.85
2022-10-19T17:41:11.297Z,21.15
2022-10-19T17:43:58.369Z,22.52
2022-10-19T17:46:44.768Z,21.70
2022-10-19T17:49:31.009Z,18.92
2022-10-19T17:52:17.154Z,18.85
2022-10-19T17:55:18.720Z,19.85
2022-10-19T17:58:04.724Z,19.13
2022-10-19T18:00:57.743Z,21.85
2022-10-19T18:03:43.563Z,21.77
2022-10-19T18:06:31.826Z,24.15
2022-10-19T18:09:17.813Z,22.42
2022-10-19T18:12:04.901Z,21.30
2022-10-19T18:14:53.085Z,26.48
2022-10-19T18:17:39.296Z,23.08
2022-10-19T18:20:25.440Z,25.05
2022-10-19T18:23:11.383Z,25.33
2022-10-19T18:26:04.343Z,21.25
2022-10-19T18:28:52.553Z,21.15
2022-10-19T18:31:39.890Z,24.08
2022-10-19T18:34:26.913Z,22.10
2022-10-19T18:37:13.132Z,23.33
2022-10-19T18:39:58.814Z,30.27
2022-10-19T18:42:44.799Z,25.38
2022-10-19T18:45:31.059Z,26.52
2022-10-19T18:48:17.158Z,29.42
2022-10-19T18:51:06.693Z,29.58
2022-10-19T18:53:52.820Z,33.08
2022-10-19T18:56:39.308Z,26.85
2022-10-19T19:02:17.266Z,31.58
2022-10-19T19:05:08.968Z,33.13
2022-10-19T19:07:57.693Z,25.95
2022-10-19T19:10:46.312Z,29.80
2022-10-19T19:13:32.122Z,28.23
2022-10-19T19:16:18.226Z,28.17
2022-10-19T19:19:05.445Z,33.42
2022-10-19T19:21:51.825Z,28.00
2022-10-19T19:24:38.155Z,29.10
2022-10-19T19:27:27.257Z,35.40
2022-10-19T19:33:02.619Z,29.27
2022-10-19T19:35:49.068Z,27.17
2022-10-19T19:38:36.488Z,27.23
2022-10-19T19:41:22.373Z,29.67
2022-10-19T19:44:08.603Z,33.35
2022-10-19T19:46:54.725Z,26.27
2022-10-19T19:49:40.606Z,30.73
2022-10-19T19:52:26.600Z,31.92
2022-10-19T19:55:12.412Z,32.42
2022-10-19T19:57:58.423Z,28.20
2022-10-19T20:00:44.583Z,26.00
2022-10-19T20:03:32.264Z,28.58
2022-10-19T20:06:22.264Z,26.92
2022-10-19T20:09:11.181Z,27.10
2022-10-19T20:11:57.474Z,21.27
2022-10-19T20:14:43.738Z,18.50
2022-10-19T20:17:30.006Z,18.40
2022-10-19T20:20:18.229Z,24.05
2022-10-19T20:23:04.611Z,17.52
2022-10-19T20:25:51.026Z,13.15
2022-10-19T20:28:37.318Z,15.98
2022-10-19T20:31:24.110Z,14.00
2022-10-19T20:34:11.305Z,13.50
2022-10-19T20:36:57.295Z,17.50
2022-10-19T20:39:43.254Z,12.25
2022-10-19T20:42:29.125Z,19.30
2022-10-19T20:45:15.183Z,13.13
2022-10-19T20:48:01.206Z,13.70
2022-10-19T20:50:47.187Z,15.55
2022-10-19T20:53:33.100Z,19.65
2022-10-19T20:56:23.909Z,15.93
2022-10-19T20:59:16.063Z,14.50
2022-10-19T21:02:02.071Z,13.17
2022-10-19T21:04:48.434Z,16.85
2022-10-19T21:07:34.226Z,15.40
2022-10-19T21:10:20.382Z,15.20
2022-10-19T21:13:06.166Z,15.75
2022-10-19T21:15:52.242Z,17.08
2022-10-19T21:18:38.443Z,13.55
2022-10-19T21:21:29.253Z,15.60
2022-10-19T21:24:21.468Z,12.35
2022-10-19T21:27:09.294Z,15.05
2022-10-19T21:29:55.415Z,15.48
2022-10-19T21:32:41.665Z,11.32
2022-10-19T21:35:27.563Z,13.98
2022-10-19T21:38:13.993Z,15.75
2022-10-19T21:41:01.625Z,15.45
2022-10-19T21:43:47.863Z,12.40
2022-10-19T21:46:34.029Z,15.93
2022-10-19T21:49:19.766Z,14.68
2022-10-19T21:52:05.702Z,13.52
2022-10-19T21:54:53.534Z,15.55
2022-10-19T21:57:39.385Z,17.75
2022-10-19T22:00:25.200Z,13.13
2022-10-19T22:03:11.276Z,15.00
2022-10-19T22:05:57.526Z,14.52
2022-10-19T22:08:46.891Z,19.73
2022-10-19T22:11:33.093Z,18.60
2022-10-19T22:14:19.168Z,15.05
2022-10-19T22:17:04.968Z,18.05
2022-10-19T22:19:50.823Z,16.52
2022-10-19T22:22:36.921Z,14.35
2022-10-19T22:25:23.258Z,15.30
2022-10-19T22:28:09.675Z,14.40
2022-10-19T22:30:56.981Z,17.33
2022-10-19T22:33:43.186Z,16.50
2022-10-19T22:36:29.643Z,16.30
2022-10-19T22:39:16.518Z,15.75
2022-10-19T22:42:02.919Z,17.40
2022-10-19T22:44:48.791Z,18.25
2022-10-19T22:47:35.183Z,18.98
2022-10-19T22:50:21.107Z,15.88
2022-10-19T22:53:06.957Z,13.93
2022-10-19T22:55:52.833Z,18.75
2022-10-19T22:58:39.133Z,14.02
2022-10-19T23:01:25.041Z,16.60
2022-10-19T23:04:10.987Z,15.73
2022-10-19T23:06:56.952Z,15.60
2022-10-19T23:09:42.759Z,14.23
2022-10-19T23:12:28.592Z,14.43
2022-10-19T23:15:16.243Z,15.32
2022-10-19T23:18:02.400Z,17.85
2022-10-19T23:21:02.538Z,15.15
2022-10-19T23:23:48.440Z,16.55
2022-10-19T23:26:34.366Z,19.80
2022-10-19T23:29:20.498Z,18.85
2022-10-19T23:32:06.606Z,17.70
2022-10-19T23:34:52.990Z,18.05
2022-10-19T23:37:39.322Z,22.88
2022-10-19T23:40:25.351Z,25.75
2022-10-19T23:43:11.908Z,14.20
2022-10-19T23:45:58.037Z,21.77
2022-10-19T23:48:44.199Z,22.55
2022-10-19T23:51:30.382Z,18.02
2022-10-19T23:54:16.293Z,17.60
2022-10-19T23:57:02.194Z,18.67
2022-10-19T23:59:48.300Z,22.02
